KAGS/AGS METAR and TAF weather

Enter ICAO airport designator
Station Type Date Time Source
KAGS METAR 2021/09/20 04:53 UTC NOAA

KAGS 200453Z AUTO 00000KT 10SM BKN060 24/22 A3009 RMK AO2 SLP186 T02390217 403110217


Station Type Date Time Source
KAGS Decoded METAR 2021/09/20 04:53 UTC NOAA

AUGUSTA BUSH FIELD, GA, United States (KAGS) 33-22N 081-58W 44M
Sep 20, 2021 - 12:53 AM EDT / 2021.09.20 0453 UTC
Wind: Calm:0
Visibility: 10 mile(s):0
Sky conditions: mostly cloudy
Temperature: 75.0 F (23.9 C)
Dew Point: 71.1 F (21.7 C)
Relative Humidity: 87%
Pressure (altimeter): 30.09 in. Hg (1018 hPa)
ob: KAGS 200453Z AUTO 00000KT 10SM BKN060 24/22 A3009 RMK AO2 SLP186 T02390217 403110217
cycle: 5

Station Type Date Time Source
KAGS TAF 2021/09/20 03:40 UTC NOAA

TAF
AMD KAGS 200238Z 2003/2024 VRB03KT P6SM BKN250
FM201200 07006KT P6SM BKN030
FM201500 09007KT 6SM -SHRA BKN010

Example: see airport list